Terminal Aerodrome Forecast
Issued by NWS

Current Version | Previous Version | Graphics & Text | Print | Product List | Glossary On
Versions: 1 2 3 4 5 6 7 8 9 10 11 12 13 14 15 16 17 18 19 20 21 22 23 24 25 26
000
FTUS41 KILN 160800 AAA
TAFLUK
TAF AMD
KLUK 160813Z 1608/1706 00000KT P6SM -SHRA VCTS SCT009CB OVC017
      TEMPO 1608/1611 1SM SHRA BKN009
     FM161100 20006KT P6SM OVC017
      TEMPO 1611/1613 -SHRA
     FM161300 22008KT P6SM VCSH OVC015
     FM161500 24012G20KT P6SM OVC020
     FM170000 24009G15KT P6SM OVC020=

USA.gov is the U.S. government's official web portal to all federal, state and local government web resources and services.